Time;durP1;ratioP1;P1;durP2;ratioP2;P2;SDS_P1;SDS_P2;PMS_P1;PMS_P2;Temp;Humidity;BMP_temperature;BMP_pressure;BME280_temperature;BME280_humidity;BME280_pressure;Samples;Min_cycle;Max_cycle;Signal;HPM_P1;HPM_P2
2023/07/30 00:02:02;;;;;;;0.90;0.90;;;;;;;;;;5096887;28;20054;-23
2023/07/30 00:04:28;;;;;;;1.05;1.05;;;;;;;;;;5096653;28;20517;-22
2023/07/30 00:06:54;;;;;;;0.93;0.93;;;;;;;;;;5096578;28;20034;-20
2023/07/30 00:09:20;;;;;;;1.13;1.02;;;;;;;;;;5096800;28;20497;-20
2023/07/30 00:11:46;;;;;;;1.23;1.10;;;;;;;;;;5096778;28;20024;-21
2023/07/30 00:14:12;;;;;;;1.27;0.90;;;;;;;;;;5096380;28;20031;-26
2023/07/30 00:16:38;;;;;;;0.80;0.80;;;;;;;;;;5096351;28;20027;-21
2023/07/30 00:19:04;;;;;;;1.25;1.08;;;;;;;;;;5096312;28;20029;-20
2023/07/30 00:21:31;;;;;;;1.35;1.25;;;;;;;;;;5096321;28;20038;-21
2023/07/30 00:23:57;;;;;;;1.02;0.93;;;;;;;;;;5096730;28;20024;-21
2023/07/30 00:26:26;;;;;;;1.17;1.13;;;;;;;;;;5096136;28;20032;-20
2023/07/30 00:28:52;;;;;;;0.95;0.95;;;;;;;;;;5096416;28;20099;-23
2023/07/30 00:31:18;;;;;;;1.02;0.90;;;;;;;;;;5096089;28;20057;-21
2023/07/30 00:33:44;;;;;;;1.50;1.40;;;;;;;;;;5096022;28;20024;-22
2023/07/30 00:36:10;;;;;;;1.00;1.00;;;;;;;;;;5095939;28;20035;-21
2023/07/30 00:38:36;;;;;;;1.17;1.15;;;;;;;;;;5095708;28;20016;-20
2023/07/30 00:41:02;;;;;;;0.90;0.90;;;;;;;;;;5095686;28;20020;-20
2023/07/30 00:43:28;;;;;;;0.98;0.98;;;;;;;;;;5095838;28;20043;-21
2023/07/30 00:45:55;;;;;;;1.02;0.93;;;;;;;;;;5096111;28;20038;-21
2023/07/30 00:48:21;;;;;;;1.30;1.20;;;;;;;;;;5095782;28;20102;-20
2023/07/30 00:50:47;;;;;;;0.80;0.80;;;;;;;;;;5095740;28;20093;-28
2023/07/30 00:53:15;;;;;;;1.40;1.30;;;;;;;;;;5095740;28;20030;-24
2023/07/30 00:55:41;;;;;;;2.05;1.15;;;;;;;;;;5095330;28;20054;-22
2023/07/30 00:58:08;;;;;;;1.98;1.23;;;;;;;;;;5095562;28;20020;-20
2023/07/30 01:00:34;;;;;;;1.20;1.10;;;;;;;;;;5095825;28;20028;-23
2023/07/30 01:03:00;;;;;;;1.10;1.00;;;;;;;;;;5095704;28;20020;-22
2023/07/30 01:05:27;;;;;;;1.10;1.10;;;;;;;;;;5096260;28;20440;-21
2023/07/30 01:07:53;;;;;;;1.20;1.10;;;;;;;;;;5095433;28;20039;-23
2023/07/30 01:10:19;;;;;;;1.10;1.00;;;;;;;;;;5095460;28;20034;-20
2023/07/30 01:12:46;;;;;;;1.10;1.00;;;;;;;;;;5095254;28;20031;-23
2023/07/30 01:15:12;;;;;;;1.05;0.90;;;;;;;;;;5095301;28;20043;-20
2023/07/30 01:17:38;;;;;;;1.10;1.10;;;;;;;;;;5095325;28;20036;-20
2023/07/30 01:20:05;;;;;;;0.90;0.90;;;;;;;;;;5095527;28;20024;-24
2023/07/30 01:22:31;;;;;;;1.00;0.90;;;;;;;;;;5095157;28;20020;-22
2023/07/30 01:24:57;;;;;;;1.10;1.00;;;;;;;;;;5095446;28;20447;-21
2023/07/30 01:27:25;;;;;;;1.20;1.10;;;;;;;;;;5095065;28;20042;-22
2023/07/30 01:29:59;;;;;;;1.90;1.10;;;;;;;;;;5095431;28;20106;-22
2023/07/30 01:32:26;;;;;;;1.40;1.30;;;;;;;;;;5095314;28;20121;-21
2023/07/30 01:34:56;;;;;;;0.88;0.88;;;;;;;;;;5094887;28;20020;-21
2023/07/30 01:37:23;;;;;;;1.33;1.30;;;;;;;;;;5095286;28;20103;-25
2023/07/30 01:39:50;;;;;;;1.20;1.20;;;;;;;;;;5094918;28;20020;-21
2023/07/30 01:42:16;;;;;;;1.20;1.10;;;;;;;;;;5094840;28;20040;-22
2023/07/30 01:44:42;;;;;;;0.90;0.90;;;;;;;;;;5094861;28;20021;-23
2023/07/30 01:47:09;;;;;;;1.17;1.08;;;;;;;;;;5094878;28;20039;-22
2023/07/30 01:49:35;;;;;;;1.05;1.05;;;;;;;;;;5094799;28;20084;-22
2023/07/30 01:52:01;;;;;;;1.20;1.08;;;;;;;;;;5094572;28;20111;-19
2023/07/30 01:54:27;;;;;;;0.98;0.98;;;;;;;;;;5094847;28;20107;-20
2023/07/30 01:56:53;;;;;;;1.30;1.20;;;;;;;;;;5094912;28;20034;-19
2023/07/30 01:59:19;;;;;;;0.80;0.80;;;;;;;;;;5094760;28;20017;-21
2023/07/30 02:01:45;;;;;;;1.02;1.02;;;;;;;;;;5094723;28;20085;-21
2023/07/30 02:04:11;;;;;;;1.20;1.10;;;;;;;;;;5094898;28;20374;-24
2023/07/30 02:06:38;;;;;;;1.00;0.90;;;;;;;;;;5094637;28;20085;-22
2023/07/30 02:09:04;;;;;;;1.02;1.02;;;;;;;;;;5094606;28;20077;-19
2023/07/30 02:11:30;;;;;;;1.25;1.15;;;;;;;;;;5094876;28;20095;-19
2023/07/30 02:13:56;;;;;;;1.20;1.10;;;;;;;;;;5094542;28;20054;-19
2023/07/30 02:16:22;;;;;;;1.30;1.20;;;;;;;;;;5094476;28;20032;-21
2023/07/30 02:18:48;;;;;;;0.93;0.93;;;;;;;;;;5094578;28;20020;-26
2023/07/30 02:21:14;;;;;;;0.85;0.85;;;;;;;;;;5094528;28;20020;-24
2023/07/30 02:23:40;;;;;;;1.10;1.00;;;;;;;;;;5094675;28;20024;-22
2023/07/30 02:26:06;;;;;;;1.10;1.00;;;;;;;;;;5094760;28;20046;-21
2023/07/30 02:28:32;;;;;;;1.00;1.00;;;;;;;;;;5094444;28;20028;-19
2023/07/30 02:30:58;;;;;;;0.93;0.93;;;;;;;;;;5094445;28;20020;-21
2023/07/30 02:33:25;;;;;;;1.35;1.25;;;;;;;;;;5094269;28;20034;-20
2023/07/30 02:35:51;;;;;;;1.08;0.98;;;;;;;;;;5094295;28;20119;-21
2023/07/30 02:38:17;;;;;;;1.52;1.10;;;;;;;;;;5094607;28;20020;-21
2023/07/30 02:40:43;;;;;;;1.15;1.10;;;;;;;;;;5094387;28;20016;-22
2023/07/30 02:43:09;;;;;;;1.10;1.10;;;;;;;;;;5094839;28;20374;-22
2023/07/30 02:45:35;;;;;;;0.85;0.85;;;;;;;;;;5094565;28;20024;-21
2023/07/30 02:48:01;;;;;;;2.03;0.90;;;;;;;;;;5094542;28;20029;-22
2023/07/30 02:50:27;;;;;;;0.70;0.70;;;;;;;;;;5094565;28;20099;-25
2023/07/30 02:52:53;;;;;;;1.00;1.00;;;;;;;;;;5094169;28;20116;-22
2023/07/30 02:55:19;;;;;;;0.90;0.80;;;;;;;;;;5093893;28;20601;-26
2023/07/30 02:57:46;;;;;;;0.90;0.90;;;;;;;;;;5094192;28;20062;-21
2023/07/30 03:00:12;;;;;;;1.15;1.10;;;;;;;;;;5094169;28;20055;-23
2023/07/30 03:02:38;;;;;;;1.20;1.10;;;;;;;;;;5095213;28;20024;-21
2023/07/30 03:05:04;;;;;;;1.02;1.00;;;;;;;;;;5097805;28;20046;-19
2023/07/30 03:07:30;;;;;;;0.90;0.90;;;;;;;;;;5098082;28;20128;-21
2023/07/30 03:09:56;;;;;;;1.30;0.90;;;;;;;;;;5098008;28;20116;-23
2023/07/30 03:12:23;;;;;;;1.13;1.13;;;;;;;;;;5097637;28;20454;-23
2023/07/30 03:14:49;;;;;;;1.00;0.98;;;;;;;;;;5097870;28;20405;-21
2023/07/30 03:17:15;;;;;;;0.90;0.90;;;;;;;;;;5097835;28;20043;-20
2023/07/30 03:19:41;;;;;;;0.90;0.90;;;;;;;;;;5097562;28;20020;-21
2023/07/30 03:22:07;;;;;;;1.02;1.02;;;;;;;;;;5097679;28;20328;-22
2023/07/30 03:24:33;;;;;;;0.90;0.90;;;;;;;;;;5097451;28;20050;-20
2023/07/30 03:26:59;;;;;;;1.30;1.20;;;;;;;;;;5097395;28;20101;-21
2023/07/30 03:29:26;;;;;;;1.20;1.10;;;;;;;;;;5097371;28;20458;-20
2023/07/30 03:31:52;;;;;;;1.00;1.00;;;;;;;;;;5097229;28;20024;-22
2023/07/30 03:34:18;;;;;;;1.23;1.13;;;;;;;;;;5097221;28;20089;-21
2023/07/30 03:36:44;;;;;;;1.25;1.15;;;;;;;;;;5097136;28;20099;-22
2023/07/30 03:39:10;;;;;;;1.30;1.20;;;;;;;;;;5097149;28;20031;-21
2023/07/30 03:41:36;;;;;;;0.82;0.82;;;;;;;;;;5097075;28;20073;-21
2023/07/30 03:44:02;;;;;;;0.88;0.88;;;;;;;;;;5097003;28;20079;-20
2023/07/30 03:46:29;;;;;;;1.00;1.00;;;;;;;;;;5096121;28;20443;-22
2023/07/30 03:48:55;;;;;;;0.98;0.98;;;;;;;;;;5096993;28;20445;-22
2023/07/30 03:51:21;;;;;;;1.08;1.00;;;;;;;;;;5097237;28;20089;-22
2023/07/30 03:53:47;;;;;;;1.13;1.00;;;;;;;;;;5096771;28;20028;-21
2023/07/30 03:56:13;;;;;;;1.42;1.20;;;;;;;;;;5096649;28;20044;-21
2023/07/30 03:58:39;;;;;;;2.22;1.10;;;;;;;;;;5097131;28;20085;-22
2023/07/30 04:01:08;;;;;;;1.70;0.90;;;;;;;;;;5096973;28;20389;-26
2023/07/30 04:03:34;;;;;;;0.98;0.98;;;;;;;;;;5096636;28;20021;-21
2023/07/30 04:06:01;;;;;;;0.93;0.93;;;;;;;;;;5096647;28;20028;-22
2023/07/30 04:08:27;;;;;;;0.90;0.82;;;;;;;;;;5096911;28;20129;-23
2023/07/30 04:10:53;;;;;;;1.50;1.02;;;;;;;;;;5096538;28;20466;-21
2023/07/30 04:13:19;;;;;;;1.52;1.17;;;;;;;;;;5096358;28;20477;-22
2023/07/30 04:15:47;;;;;;;1.02;1.02;;;;;;;;;;5096636;28;20043;-20
2023/07/30 04:18:13;;;;;;;1.33;1.23;;;;;;;;;;5096378;28;20024;-24
2023/07/30 04:20:39;;;;;;;1.33;1.20;;;;;;;;;;5096636;28;20031;-21
2023/07/30 04:23:06;;;;;;;1.30;1.20;;;;;;;;;;5096175;28;20030;-18
2023/07/30 04:25:32;;;;;;;1.25;1.15;;;;;;;;;;5095285;28;20336;-23
2023/07/30 04:27:58;;;;;;;1.00;1.00;;;;;;;;;;5096226;28;20101;-22
2023/07/30 04:30:24;;;;;;;1.10;1.05;;;;;;;;;;5096469;28;20020;-21
2023/07/30 04:32:50;;;;;;;0.98;0.90;;;;;;;;;;5095965;28;20069;-23
2023/07/30 04:35:16;;;;;;;1.58;1.02;;;;;;;;;;5096267;28;20020;-19
2023/07/30 04:37:42;;;;;;;1.35;1.00;;;;;;;;;;5096312;28;20054;-20
2023/07/30 04:40:09;;;;;;;1.33;1.00;;;;;;;;;;5095983;28;20043;-20
2023/07/30 04:42:35;;;;;;;1.33;1.10;;;;;;;;;;5095847;28;20396;-21
2023/07/30 04:45:01;;;;;;;1.42;0.98;;;;;;;;;;5096102;28;20130;-20
2023/07/30 04:47:27;;;;;;;1.42;1.20;;;;;;;;;;5096614;28;20103;-21
2023/07/30 04:49:53;;;;;;;1.25;1.10;;;;;;;;;;5095801;28;20355;-21
2023/07/30 04:52:19;;;;;;;1.42;1.05;;;;;;;;;;5095980;28;20024;-24
2023/07/30 04:54:46;;;;;;;1.10;1.00;;;;;;;;;;5095503;28;20020;-20
2023/07/30 04:57:12;;;;;;;1.10;1.00;;;;;;;;;;5096026;28;20024;-21
2023/07/30 04:59:38;;;;;;;1.30;1.20;;;;;;;;;;5095653;28;20038;-21
2023/07/30 05:02:04;;;;;;;1.83;1.10;;;;;;;;;;5095731;28;20038;-22
2023/07/30 05:04:30;;;;;;;1.30;1.20;;;;;;;;;;5095544;28;20024;-23
2023/07/30 05:06:56;;;;;;;1.08;0.95;;;;;;;;;;5095459;28;20100;-23
2023/07/30 05:09:22;;;;;;;1.00;1.00;;;;;;;;;;5095676;28;20451;-23
2023/07/30 05:11:49;;;;;;;1.63;1.15;;;;;;;;;;5095630;28;20028;-21
2023/07/30 05:14:15;;;;;;;1.02;1.00;;;;;;;;;;5095310;28;20027;-22
2023/07/30 05:16:41;;;;;;;1.17;1.17;;;;;;;;;;5095272;28;20043;-22
2023/07/30 05:19:08;;;;;;;1.20;1.10;;;;;;;;;;5094310;28;20039;-22
2023/07/30 05:21:34;;;;;;;1.33;1.15;;;;;;;;;;5095217;28;20020;-23
2023/07/30 05:24:00;;;;;;;1.13;1.10;;;;;;;;;;5095038;28;20061;-23
2023/07/30 05:26:26;;;;;;;1.58;0.93;;;;;;;;;;5095071;28;20097;-20
2023/07/30 05:28:53;;;;;;;1.67;1.30;;;;;;;;;;5095364;28;20038;-21
2023/07/30 05:31:19;;;;;;;1.33;1.20;;;;;;;;;;5095386;28;20078;-21
2023/07/30 05:33:45;;;;;;;0.90;0.90;;;;;;;;;;5095052;28;20387;-21
2023/07/30 05:36:11;;;;;;;0.85;0.82;;;;;;;;;;5095242;28;20055;-24
2023/07/30 05:38:37;;;;;;;1.25;1.05;;;;;;;;;;5094983;28;20020;-21
2023/07/30 05:41:03;;;;;;;0.85;0.85;;;;;;;;;;5094936;28;20085;-20
2023/07/30 05:43:29;;;;;;;1.30;0.90;;;;;;;;;;5095132;28;20031;-19
2023/07/30 05:45:55;;;;;;;1.17;1.13;;;;;;;;;;5094874;28;20035;-23
2023/07/30 05:48:21;;;;;;;1.63;1.23;;;;;;;;;;5095171;28;20111;-24
2023/07/30 05:50:47;;;;;;;1.13;1.10;;;;;;;;;;5095106;28;20028;-19
2023/07/30 05:53:13;;;;;;;1.10;1.08;;;;;;;;;;5095001;28;20024;-21
2023/07/30 05:55:39;;;;;;;1.25;0.90;;;;;;;;;;5094626;28;20379;-21
2023/07/30 05:58:06;;;;;;;1.75;1.23;;;;;;;;;;5095037;28;20047;-22
2023/07/30 06:00:32;;;;;;;1.58;1.40;;;;;;;;;;5094737;28;20026;-23
2023/07/30 06:02:58;;;;;;;0.75;0.75;;;;;;;;;;5094622;28;20351;-21
2023/07/30 06:05:24;;;;;;;0.70;0.70;;;;;;;;;;5094958;28;20347;-23
2023/07/30 06:07:50;;;;;;;1.52;1.05;;;;;;;;;;5094675;28;20493;-21
2023/07/30 06:10:16;;;;;;;1.00;1.00;;;;;;;;;;5093678;28;20516;-21
2023/07/30 06:12:42;;;;;;;0.98;0.95;;;;;;;;;;5094520;28;20040;-21
2023/07/30 06:15:09;;;;;;;1.13;1.02;;;;;;;;;;5094477;28;20028;-22
2023/07/30 06:17:35;;;;;;;1.05;1.00;;;;;;;;;;5095658;28;20085;-21
2023/07/30 06:20:02;;;;;;;1.85;1.25;;;;;;;;;;5094842;28;20047;-21
2023/07/30 06:22:28;;;;;;;2.45;1.30;;;;;;;;;;5094469;28;20362;-23
2023/07/30 06:24:55;;;;;;;1.38;1.05;;;;;;;;;;5094807;28;20031;-24
2023/07/30 06:27:21;;;;;;;1.25;1.15;;;;;;;;;;5093544;28;20470;-21
2023/07/30 06:29:47;;;;;;;1.40;1.30;;;;;;;;;;5094760;28;20344;-22
2023/07/30 06:32:13;;;;;;;1.73;1.63;;;;;;;;;;5094669;28;20047;-22
2023/07/30 06:34:39;;;;;;;1.48;1.38;;;;;;;;;;5094654;28;20016;-21
2023/07/30 06:37:05;;;;;;;0.77;0.77;;;;;;;;;;5094597;28;20031;-21
2023/07/30 06:39:31;;;;;;;1.00;0.93;;;;;;;;;;5098365;28;20102;-22
2023/07/30 06:41:58;;;;;;;1.38;1.00;;;;;;;;;;5098226;28;20020;-22
2023/07/30 06:44:25;;;;;;;1.38;1.27;;;;;;;;;;5098318;28;20020;-23
2023/07/30 06:46:51;;;;;;;1.15;1.05;;;;;;;;;;5098480;28;20028;-23
2023/07/30 06:49:17;;;;;;;1.00;1.00;;;;;;;;;;5098742;28;20031;-24
2023/07/30 06:51:43;;;;;;;1.00;1.00;;;;;;;;;;5098645;28;20044;-23
2023/07/30 06:54:09;;;;;;;0.90;0.90;;;;;;;;;;5097034;28;20031;-24
2023/07/30 06:56:35;;;;;;;1.20;1.10;;;;;;;;;;5097798;28;20048;-22
2023/07/30 06:59:03;;;;;;;3.30;1.38;;;;;;;;;;5098216;28;20024;-21
2023/07/30 07:01:29;;;;;;;1.08;1.00;;;;;;;;;;5097872;28;20454;-19
2023/07/30 07:03:55;;;;;;;1.65;1.55;;;;;;;;;;5098061;28;20401;-21
2023/07/30 07:06:21;;;;;;;0.90;0.85;;;;;;;;;;5097870;28;20099;-21
2023/07/30 07:08:47;;;;;;;1.08;0.98;;;;;;;;;;5098025;28;20028;-22
2023/07/30 07:11:13;;;;;;;1.10;1.10;;;;;;;;;;5097739;28;20028;-20
2023/07/30 07:13:40;;;;;;;1.15;1.05;;;;;;;;;;5097629;28;20385;-20
2023/07/30 07:16:06;;;;;;;0.95;0.90;;;;;;;;;;5097593;28;20098;-22
2023/07/30 07:18:32;;;;;;;0.93;0.90;;;;;;;;;;5097906;28;20016;-20
2023/07/30 07:20:58;;;;;;;1.95;1.13;;;;;;;;;;5097563;28;20031;-21
2023/07/30 07:23:24;;;;;;;1.13;1.02;;;;;;;;;;5097460;28;20028;-24
2023/07/30 07:25:50;;;;;;;1.40;0.90;;;;;;;;;;5097687;28;20049;-22
2023/07/30 07:28:18;;;;;;;1.23;0.90;;;;;;;;;;5097388;28;20055;-21
2023/07/30 07:30:44;;;;;;;2.30;1.50;;;;;;;;;;5097621;28;20035;-27
2023/07/30 07:33:12;;;;;;;1.27;1.17;;;;;;;;;;5097220;28;20038;-22
2023/07/30 07:35:39;;;;;;;1.08;0.93;;;;;;;;;;5097229;28;20111;-23
2023/07/30 07:38:06;;;;;;;1.90;1.20;;;;;;;;;;5097511;28;20077;-20
2023/07/30 07:40:39;;;;;;;1.00;1.00;;;;;;;;;;5097997;28;20338;-25
2023/07/30 07:43:05;;;;;;;1.17;1.08;;;;;;;;;;5097081;28;20095;-20
2023/07/30 07:45:31;;;;;;;1.23;1.13;;;;;;;;;;5097650;28;20052;-22
2023/07/30 07:47:57;;;;;;;2.85;1.50;;;;;;;;;;5097158;28;20462;-21
2023/07/30 07:50:23;;;;;;;1.48;1.38;;;;;;;;;;5096795;28;20453;-21
2023/07/30 07:52:50;;;;;;;1.40;0.90;;;;;;;;;;5097161;28;20129;-21
2023/07/30 07:55:16;;;;;;;1.50;1.30;;;;;;;;;;5096656;28;20040;-22
2023/07/30 07:57:42;;;;;;;1.65;1.08;;;;;;;;;;5096852;28;20019;-25
2023/07/30 08:00:09;;;;;;;1.00;0.95;;;;;;;;;;5096821;28;20019;-23
2023/07/30 08:02:35;;;;;;;1.30;1.20;;;;;;;;;;5096936;28;20057;-21
2023/07/30 08:05:02;;;;;;;1.60;1.20;;;;;;;;;;5096772;28;20027;-23
2023/07/30 08:07:29;;;;;;;2.03;1.17;;;;;;;;;;5096693;28;20022;-23
2023/07/30 08:09:55;;;;;;;1.77;1.30;;;;;;;;;;5096863;28;20416;-21
2023/07/30 08:12:21;;;;;;;1.30;1.17;;;;;;;;;;5096498;28;20048;-22
2023/07/30 08:14:47;;;;;;;1.20;1.08;;;;;;;;;;5096784;28;20016;-22
2023/07/30 08:17:13;;;;;;;1.67;1.10;;;;;;;;;;5096384;28;20078;-22
2023/07/30 08:19:39;;;;;;;1.75;1.27;;;;;;;;;;5096648;28;20031;-23
2023/07/30 08:22:05;;;;;;;1.42;1.30;;;;;;;;;;5096254;28;20439;-21
2023/07/30 08:24:32;;;;;;;1.30;1.20;;;;;;;;;;5096583;28;20035;-22
2023/07/30 08:26:58;;;;;;;1.05;1.05;;;;;;;;;;5096567;28;20174;-23
2023/07/30 08:29:24;;;;;;;1.20;1.10;;;;;;;;;;5096234;28;20034;-20
2023/07/30 08:31:50;;;;;;;1.10;1.10;;;;;;;;;;5096049;28;20038;-25
2023/07/30 08:34:16;;;;;;;1.83;1.42;;;;;;;;;;5096705;28;20058;-22
2023/07/30 08:36:42;;;;;;;1.23;1.00;;;;;;;;;;5096041;28;20104;-22
2023/07/30 08:39:09;;;;;;;2.20;1.30;;;;;;;;;;5096089;28;20032;-22
2023/07/30 08:41:35;;;;;;;1.02;0.93;;;;;;;;;;5096016;28;20016;-20
2023/07/30 08:44:01;;;;;;;1.40;1.30;;;;;;;;;;5095925;28;20016;-21
2023/07/30 08:46:28;;;;;;;2.33;1.48;;;;;;;;;;5096439;28;20093;-21
2023/07/30 08:48:54;;;;;;;1.27;1.10;;;;;;;;;;5095840;28;20073;-19
2023/07/30 08:51:22;;;;;;;2.28;1.80;;;;;;;;;;5096064;28;20344;-21
2023/07/30 08:53:48;;;;;;;1.25;1.15;;;;;;;;;;5095735;28;20028;-22
2023/07/30 08:56:14;;;;;;;1.40;1.30;;;;;;;;;;5095459;28;20546;-21
2023/07/30 08:58:41;;;;;;;1.75;1.00;;;;;;;;;;5095950;28;20512;-19
2023/07/30 09:01:12;;;;;;;2.10;1.40;;;;;;;;;;5095178;28;20077;-26
2023/07/30 09:03:41;;;;;;;1.58;1.48;;;;;;;;;;5095723;28;20035;-21
2023/07/30 09:06:08;;;;;;;1.20;1.10;;;;;;;;;;5095577;28;20420;-23
2023/07/30 09:08:34;;;;;;;1.30;1.20;;;;;;;;;;5095763;28;20043;-20
2023/07/30 09:11:12;;;;;;;3.20;1.55;;;;;;;;;;5095448;28;20024;-21
2023/07/30 09:13:38;;;;;;;1.10;1.00;;;;;;;;;;5095317;28;20016;-23
2023/07/30 09:16:11;;;;;;;1.80;1.35;;;;;;;;;;5095600;28;20020;-19
2023/07/30 09:18:49;;;;;;;1.83;1.58;;;;;;;;;;5095905;28;20024;-24
2023/07/30 09:21:15;;;;;;;3.03;2.40;;;;;;;;;;5095235;28;20024;-22
2023/07/30 09:23:45;;;;;;;1.40;0.95;;;;;;;;;;5095172;28;20054;-23
2023/07/30 09:26:11;;;;;;;1.50;1.23;;;;;;;;;;5095158;28;20028;-22
2023/07/30 09:28:38;;;;;;;1.48;1.20;;;;;;;;;;5095148;28;20024;-22
2023/07/30 09:31:08;;;;;;;1.92;1.30;;;;;;;;;;5095378;28;20097;-22
2023/07/30 09:33:35;;;;;;;2.03;1.20;;;;;;;;;;5095017;28;20035;-21
2023/07/30 09:36:04;;;;;;;0.80;0.80;;;;;;;;;;5095032;28;20050;-21
2023/07/30 09:38:32;;;;;;;1.90;1.30;;;;;;;;;;5095278;28;20099;-21
2023/07/30 09:41:03;;;;;;;2.22;1.30;;;;;;;;;;5095260;28;20028;-20
2023/07/30 09:43:30;;;;;;;1.20;1.10;;;;;;;;;;5095173;28;20332;-22
2023/07/30 09:46:01;;;;;;;0.90;0.90;;;;;;;;;;5094948;28;20024;-21
2023/07/30 09:48:27;;;;;;;1.42;1.20;;;;;;;;;;5094908;28;20028;-21
2023/07/30 09:50:54;;;;;;;1.58;1.27;;;;;;;;;;5094884;28;20470;-22
2023/07/30 09:53:21;;;;;;;2.55;1.60;;;;;;;;;;5094723;28;20036;-22
2023/07/30 09:55:47;;;;;;;1.40;1.30;;;;;;;;;;5094619;28;20040;-21
2023/07/30 09:58:13;;;;;;;1.40;1.17;;;;;;;;;;5095078;28;20085;-20
2023/07/30 10:00:39;;;;;;;1.25;1.08;;;;;;;;;;5094746;28;20406;-25
2023/07/30 10:03:07;;;;;;;1.10;1.00;;;;;;;;;;5094643;28;20436;-24
2023/07/30 10:05:36;;;;;;;1.40;1.30;;;;;;;;;;5094972;28;20032;-21
2023/07/30 10:08:07;;;;;;;2.42;1.13;;;;;;;;;;5094713;28;20020;-21
2023/07/30 10:10:34;;;;;;;1.10;1.00;;;;;;;;;;5094643;28;20035;-20
2023/07/30 10:13:03;;;;;;;1.48;1.38;;;;;;;;;;5097866;28;20028;-22
2023/07/30 10:15:29;;;;;;;1.20;1.10;;;;;;;;;;5099002;28;20043;-21
2023/07/30 10:17:56;;;;;;;1.65;1.23;;;;;;;;;;5099063;28;20332;-23
2023/07/30 10:20:29;;;;;;;1.02;0.98;;;;;;;;;;5098747;28;20055;-21
2023/07/30 10:22:56;;;;;;;1.38;1.20;;;;;;;;;;5098629;28;20020;-21
2023/07/30 10:25:23;;;;;;;1.85;1.38;;;;;;;;;;5098622;28;20024;-19
2023/07/30 10:27:51;;;;;;;1.38;1.27;;;;;;;;;;5098897;28;20323;-26
2023/07/30 10:30:19;;;;;;;1.33;1.20;;;;;;;;;;5098870;28;20032;-24
2023/07/30 10:32:57;;;;;;;1.20;1.10;;;;;;;;;;5098692;28;20366;-22
2023/07/30 10:35:36;;;;;;;1.65;1.38;;;;;;;;;;5097455;28;20434;-24
2023/07/30 10:38:13;;;;;;;1.33;1.23;;;;;;;;;;5099502;28;20036;-23
2023/07/30 10:40:40;;;;;;;1.23;1.10;;;;;;;;;;5097464;28;20031;-21
2023/07/30 10:43:15;;;;;;;1.98;1.45;;;;;;;;;;5097291;28;20481;-24
2023/07/30 10:45:51;;;;;;;2.95;1.42;;;;;;;;;;5098337;28;20134;-23
2023/07/30 10:48:17;;;;;;;1.20;1.10;;;;;;;;;;5098487;28;20358;-21
2023/07/30 10:50:48;;;;;;;1.23;1.10;;;;;;;;;;5098457;28;20028;-20
2023/07/30 10:53:16;;;;;;;1.50;1.40;;;;;;;;;;5098048;28;20085;-24
2023/07/30 10:55:42;;;;;;;1.35;1.23;;;;;;;;;;5097786;28;20095;-21
2023/07/30 10:58:09;;;;;;;1.30;1.20;;;;;;;;;;5098057;28;20020;-22
2023/07/30 11:00:35;;;;;;;1.13;1.02;;;;;;;;;;5098219;28;20031;-22
2023/07/30 11:03:01;;;;;;;1.25;1.15;;;;;;;;;;5097860;28;20019;-25
2023/07/30 11:05:28;;;;;;;2.17;1.75;;;;;;;;;;5098159;28;20281;-24
2023/07/30 11:07:54;;;;;;;1.95;1.00;;;;;;;;;;5097788;28;20025;-21
2023/07/30 11:10:20;;;;;;;1.50;1.20;;;;;;;;;;5097775;28;20036;-24
2023/07/30 11:12:52;;;;;;;1.30;1.20;;;;;;;;;;5097865;28;20103;-23
2023/07/30 11:15:18;;;;;;;1.63;1.25;;;;;;;;;;5097639;28;20070;-24
2023/07/30 11:17:45;;;;;;;1.35;1.23;;;;;;;;;;5097666;28;20020;-21
2023/07/30 11:20:26;;;;;;;1.95;1.30;;;;;;;;;;5097610;28;20026;-21
2023/07/30 11:22:53;;;;;;;1.42;1.33;;;;;;;;;;5097218;28;20104;-20
2023/07/30 11:25:19;;;;;;;1.15;1.15;;;;;;;;;;5097226;28;20028;-24
2023/07/30 11:27:48;;;;;;;1.45;1.35;;;;;;;;;;5097510;28;20020;-21
2023/07/30 11:30:14;;;;;;;1.58;1.48;;;;;;;;;;5097432;28;20363;-22
2023/07/30 11:32:42;;;;;;;1.67;1.58;;;;;;;;;;5097265;28;20032;-23
2023/07/30 11:35:09;;;;;;;1.27;1.17;;;;;;;;;;5097203;28;20024;-20
2023/07/30 11:37:38;;;;;;;2.13;1.33;;;;;;;;;;5097309;28;20024;-23
2023/07/30 11:40:05;;;;;;;1.48;1.38;;;;;;;;;;5097206;28;20035;-21
2023/07/30 11:42:31;;;;;;;1.52;1.42;;;;;;;;;;5097048;28;20024;-20
2023/07/30 11:44:57;;;;;;;1.70;1.38;;;;;;;;;;5097453;28;20355;-22
2023/07/30 11:47:23;;;;;;;2.38;1.02;;;;;;;;;;5097073;28;20031;-22
2023/07/30 11:49:59;;;;;;;1.80;1.33;;;;;;;;;;5097357;28;20028;-20
2023/07/30 11:52:25;;;;;;;1.67;1.58;;;;;;;;;;5097227;28;20463;-22
2023/07/30 11:55:01;;;;;;;1.27;1.17;;;;;;;;;;5096986;28;20044;-22
2023/07/30 11:57:36;;;;;;;1.65;1.55;;;;;;;;;;5097234;28;20088;-21
2023/07/30 12:00:03;;;;;;;1.40;1.30;;;;;;;;;;5096807;28;20016;-21
2023/07/30 12:02:30;;;;;;;1.50;1.40;;;;;;;;;;5096657;28;20035;-22
2023/07/30 12:04:56;;;;;;;1.25;1.15;;;;;;;;;;5097027;28;20020;-19
2023/07/30 12:07:23;;;;;;;3.45;1.52;;;;;;;;;;5096719;28;20024;-19
2023/07/30 12:09:49;;;;;;;1.73;1.50;;;;;;;;;;5096653;28;20034;-22
2023/07/30 12:12:15;;;;;;;1.42;1.30;;;;;;;;;;5096535;28;20040;-23
2023/07/30 12:14:45;;;;;;;1.42;1.30;;;;;;;;;;5097134;28;20443;-22
2023/07/30 12:17:11;;;;;;;2.45;1.50;;;;;;;;;;5096667;28;20363;-22
2023/07/30 12:19:37;;;;;;;1.42;1.33;;;;;;;;;;5096791;28;20024;-22
2023/07/30 12:22:03;;;;;;;1.40;1.30;;;;;;;;;;5096344;28;20077;-20
2023/07/30 12:24:29;;;;;;;1.25;1.15;;;;;;;;;;5096620;28;20023;-22
2023/07/30 12:26:56;;;;;;;1.55;1.40;;;;;;;;;;5096639;28;20350;-22
2023/07/30 12:29:22;;;;;;;1.55;1.45;;;;;;;;;;5096773;28;20073;-22
2023/07/30 12:31:50;;;;;;;1.58;1.35;;;;;;;;;;5096230;28;20043;-21
2023/07/30 12:34:16;;;;;;;3.33;2.40;;;;;;;;;;5096327;28;20363;-27
2023/07/30 12:36:42;;;;;;;1.10;1.10;;;;;;;;;;5095405;28;20020;-23
2023/07/30 12:39:08;;;;;;;1.33;1.23;;;;;;;;;;5096122;28;20043;-24
2023/07/30 12:41:34;;;;;;;1.08;1.08;;;;;;;;;;5096279;28;20024;-21
2023/07/30 12:44:00;;;;;;;1.60;1.30;;;;;;;;;;5095896;28;20028;-21
2023/07/30 12:46:29;;;;;;;2.92;1.58;;;;;;;;;;5095938;28;20028;-25
2023/07/30 12:48:56;;;;;;;1.33;1.13;;;;;;;;;;5095845;28;20462;-20
2023/07/30 12:51:22;;;;;;;2.75;1.67;;;;;;;;;;5095829;28;20036;-21
2023/07/30 12:53:48;;;;;;;1.40;1.30;;;;;;;;;;5095785;28;20039;-22
2023/07/30 12:56:15;;;;;;;1.30;1.20;;;;;;;;;;5095535;28;20048;-23
2023/07/30 12:58:41;;;;;;;1.42;1.33;;;;;;;;;;5095703;28;20035;-21
2023/07/30 13:01:08;;;;;;;1.90;1.40;;;;;;;;;;5095667;28;20020;-21
2023/07/30 13:03:34;;;;;;;2.08;1.55;;;;;;;;;;5095477;28;20031;-23
2023/07/30 13:06:00;;;;;;;1.90;1.75;;;;;;;;;;5095853;28;20370;-20
2023/07/30 13:08:26;;;;;;;2.30;1.35;;;;;;;;;;5095517;28;20028;-21
2023/07/30 13:10:52;;;;;;;1.70;1.52;;;;;;;;;;5095781;28;20097;-23
2023/07/30 13:13:18;;;;;;;1.80;1.70;;;;;;;;;;5095622;28;20382;-23
2023/07/30 13:15:44;;;;;;;1.13;1.02;;;;;;;;;;5095602;28;20099;-22
2023/07/30 13:18:10;;;;;;;1.83;1.50;;;;;;;;;;5095318;28;20028;-21
2023/07/30 13:20:37;;;;;;;1.80;1.65;;;;;;;;;;5095294;28;20020;-26
2023/07/30 13:23:03;;;;;;;1.50;1.40;;;;;;;;;;5095193;28;20020;-20
2023/07/30 13:25:29;;;;;;;2.03;1.88;;;;;;;;;;5095284;28;20348;-23
2023/07/30 13:27:55;;;;;;;1.60;1.48;;;;;;;;;;5095262;28;20057;-25
2023/07/30 13:30:21;;;;;;;2.10;1.85;;;;;;;;;;5096231;28;20032;-21
2023/07/30 13:32:47;;;;;;;1.98;1.75;;;;;;;;;;5095071;28;20110;-22
2023/07/30 13:35:13;;;;;;;1.80;1.52;;;;;;;;;;5095275;28;20020;-23
2023/07/30 13:37:39;;;;;;;1.88;1.70;;;;;;;;;;5095339;28;20021;-21
2023/07/30 13:40:06;;;;;;;1.58;1.48;;;;;;;;;;5095026;28;20060;-22
2023/07/30 13:42:32;;;;;;;1.73;1.63;;;;;;;;;;5095471;28;20020;-21
2023/07/30 13:44:58;;;;;;;1.48;1.38;;;;;;;;;;5095538;28;20032;-20
2023/07/30 13:47:24;;;;;;;1.98;1.50;;;;;;;;;;5094524;28;20024;-23
2023/07/30 13:49:50;;;;;;;1.77;1.48;;;;;;;;;;5094942;28;20456;-21
2023/07/30 13:52:16;;;;;;;1.67;1.58;;;;;;;;;;5095005;28;20108;-22
2023/07/30 13:54:45;;;;;;;1.75;1.65;;;;;;;;;;5094911;28;20405;-20
2023/07/30 13:57:12;;;;;;;1.55;1.45;;;;;;;;;;5094693;28;20067;-21
2023/07/30 13:59:39;;;;;;;1.27;1.17;;;;;;;;;;5095097;28;20102;-24
2023/07/30 14:02:06;;;;;;;1.70;1.60;;;;;;;;;;5094660;28;20027;-22
2023/07/30 14:04:32;;;;;;;1.48;1.38;;;;;;;;;;5094977;28;20089;-24
2023/07/30 14:06:58;;;;;;;1.27;1.27;;;;;;;;;;5095003;28;20052;-21
2023/07/30 14:09:27;;;;;;;1.40;1.30;;;;;;;;;;5094972;28;20374;-24
2023/07/30 14:11:53;;;;;;;1.05;1.05;;;;;;;;;;5094520;28;20051;-21
2023/07/30 14:14:22;;;;;;;1.45;1.35;;;;;;;;;;5094709;28;20366;-20
2023/07/30 14:16:48;;;;;;;1.45;1.23;;;;;;;;;;5094853;28;20032;-19
2023/07/30 14:19:14;;;;;;;1.50;1.40;;;;;;;;;;5094854;28;20430;-24
2023/07/30 14:21:40;;;;;;;1.33;1.23;;;;;;;;;;5094874;28;20052;-23
2023/07/30 14:24:06;;;;;;;1.45;1.30;;;;;;;;;;5094504;28;20043;-20
2023/07/30 14:26:32;;;;;;;1.42;1.33;;;;;;;;;;5094569;28;20450;-23
2023/07/30 14:28:58;;;;;;;1.60;1.50;;;;;;;;;;5094546;28;20032;-22
2023/07/30 14:31:24;;;;;;;1.90;1.80;;;;;;;;;;5094479;28;20035;-22
2023/07/30 14:33:50;;;;;;;1.42;1.35;;;;;;;;;;5094362;28;20040;-21
2023/07/30 14:36:17;;;;;;;1.75;1.38;;;;;;;;;;5094406;28;20121;-21
2023/07/30 14:38:43;;;;;;;1.80;1.70;;;;;;;;;;5094736;28;20123;-20
2023/07/30 14:41:09;;;;;;;1.52;1.40;;;;;;;;;;5094382;28;20020;-21